sensor_id;sensor_type;location;lat;lon;timestamp;P1;durP1;ratioP1;P2;durP2;ratioP2
20525;SDS011;10421;49.142;9.232;2023-05-28T00:02:06;4.63;;;3.77;;
20525;SDS011;10421;49.142;9.232;2023-05-28T00:04:33;4.90;;;3.27;;
20525;SDS011;10421;49.142;9.232;2023-05-28T00:07:01;10.50;;;4.60;;
20525;SDS011;10421;49.142;9.232;2023-05-28T00:09:28;4.87;;;3.57;;
20525;SDS011;10421;49.142;9.232;2023-05-28T00:11:54;9.50;;;4.73;;
20525;SDS011;10421;49.142;9.232;2023-05-28T00:14:21;7.57;;;4.27;;
20525;SDS011;10421;49.142;9.232;2023-05-28T00:16:48;6.43;;;4.37;;
20525;SDS011;10421;49.142;9.232;2023-05-28T00:19:16;5.60;;;3.83;;
20525;SDS011;10421;49.142;9.232;2023-05-28T00:21:42;10.17;;;4.67;;
20525;SDS011;10421;49.142;9.232;2023-05-28T00:24:10;10.03;;;4.30;;
20525;SDS011;10421;49.142;9.232;2023-05-28T00:26:37;9.30;;;4.50;;
20525;SDS011;10421;49.142;9.232;2023-05-28T00:29:04;8.90;;;4.30;;
20525;SDS011;10421;49.142;9.232;2023-05-28T00:31:30;9.93;;;4.80;;
20525;SDS011;10421;49.142;9.232;2023-05-28T00:33:57;9.43;;;4.60;;
20525;SDS011;10421;49.142;9.232;2023-05-28T00:36:24;8.90;;;3.87;;
20525;SDS011;10421;49.142;9.232;2023-05-28T00:38:51;10.87;;;4.53;;
20525;SDS011;10421;49.142;9.232;2023-05-28T00:41:19;7.57;;;4.37;;
20525;SDS011;10421;49.142;9.232;2023-05-28T00:43:47;6.10;;;3.90;;
20525;SDS011;10421;49.142;9.232;2023-05-28T00:46:15;7.23;;;4.20;;
20525;SDS011;10421;49.142;9.232;2023-05-28T00:48:44;6.83;;;3.90;;
20525;SDS011;10421;49.142;9.232;2023-05-28T00:51:11;7.97;;;4.27;;
20525;SDS011;10421;49.142;9.232;2023-05-28T00:53:39;6.77;;;3.60;;
20525;SDS011;10421;49.142;9.232;2023-05-28T00:56:06;9.03;;;4.50;;
20525;SDS011;10421;49.142;9.232;2023-05-28T00:58:37;5.90;;;3.83;;
20525;SDS011;10421;49.142;9.232;2023-05-28T01:01:05;9.83;;;4.47;;
20525;SDS011;10421;49.142;9.232;2023-05-28T01:03:33;6.23;;;3.80;;
20525;SDS011;10421;49.142;9.232;2023-05-28T01:06:03;7.73;;;4.37;;
20525;SDS011;10421;49.142;9.232;2023-05-28T01:08:32;7.80;;;4.13;;
20525;SDS011;10421;49.142;9.232;2023-05-28T01:10:59;9.50;;;4.47;;
20525;SDS011;10421;49.142;9.232;2023-05-28T01:13:26;7.90;;;3.87;;
20525;SDS011;10421;49.142;9.232;2023-05-28T01:15:54;7.15;;;4.20;;
20525;SDS011;10421;49.142;9.232;2023-05-28T01:18:21;8.33;;;4.13;;
20525;SDS011;10421;49.142;9.232;2023-05-28T01:20:49;10.50;;;4.27;;
20525;SDS011;10421;49.142;9.232;2023-05-28T01:23:17;11.20;;;6.00;;
20525;SDS011;10421;49.142;9.232;2023-05-28T01:25:47;9.23;;;4.50;;
20525;SDS011;10421;49.142;9.232;2023-05-28T01:28:16;7.97;;;3.80;;
20525;SDS011;10421;49.142;9.232;2023-05-28T01:30:42;4.90;;;3.60;;
20525;SDS011;10421;49.142;9.232;2023-05-28T01:33:10;7.33;;;4.10;;
20525;SDS011;10421;49.142;9.232;2023-05-28T01:35:38;6.90;;;3.60;;
20525;SDS011;10421;49.142;9.232;2023-05-28T01:38:05;10.57;;;4.33;;
20525;SDS011;10421;49.142;9.232;2023-05-28T01:40:32;8.50;;;4.30;;
20525;SDS011;10421;49.142;9.232;2023-05-28T01:43:01;10.53;;;4.40;;
20525;SDS011;10421;49.142;9.232;2023-05-28T01:45:29;5.00;;;3.77;;
20525;SDS011;10421;49.142;9.232;2023-05-28T01:47:57;7.90;;;4.37;;
20525;SDS011;10421;49.142;9.232;2023-05-28T01:50:24;8.43;;;4.70;;
20525;SDS011;10421;49.142;9.232;2023-05-28T01:52:52;6.50;;;4.43;;
20525;SDS011;10421;49.142;9.232;2023-05-28T01:55:19;6.33;;;3.90;;
20525;SDS011;10421;49.142;9.232;2023-05-28T01:57:46;6.77;;;3.87;;
20525;SDS011;10421;49.142;9.232;2023-05-28T02:00:14;8.27;;;4.20;;
20525;SDS011;10421;49.142;9.232;2023-05-28T02:02:41;8.83;;;4.30;;
20525;SDS011;10421;49.142;9.232;2023-05-28T02:05:08;7.67;;;3.97;;
20525;SDS011;10421;49.142;9.232;2023-05-28T02:07:35;8.73;;;4.27;;
20525;SDS011;10421;49.142;9.232;2023-05-28T02:10:02;7.77;;;3.77;;
20525;SDS011;10421;49.142;9.232;2023-05-28T02:12:30;8.43;;;4.13;;
20525;SDS011;10421;49.142;9.232;2023-05-28T02:14:57;13.10;;;5.40;;
20525;SDS011;10421;49.142;9.232;2023-05-28T02:17:25;8.23;;;4.17;;
20525;SDS011;10421;49.142;9.232;2023-05-28T02:19:52;8.80;;;3.87;;
20525;SDS011;10421;49.142;9.232;2023-05-28T02:22:18;7.23;;;4.10;;
20525;SDS011;10421;49.142;9.232;2023-05-28T02:24:45;6.77;;;4.13;;
20525;SDS011;10421;49.142;9.232;2023-05-28T02:27:12;6.47;;;3.73;;
20525;SDS011;10421;49.142;9.232;2023-05-28T02:29:40;9.20;;;4.80;;
20525;SDS011;10421;49.142;9.232;2023-05-28T02:32:08;6.63;;;4.10;;
20525;SDS011;10421;49.142;9.232;2023-05-28T02:34:36;8.10;;;4.37;;
20525;SDS011;10421;49.142;9.232;2023-05-28T02:37:03;8.30;;;4.20;;
20525;SDS011;10421;49.142;9.232;2023-05-28T02:39:30;6.93;;;3.73;;
20525;SDS011;10421;49.142;9.232;2023-05-28T02:41:57;7.53;;;4.40;;
20525;SDS011;10421;49.142;9.232;2023-05-28T02:44:23;8.10;;;4.10;;
20525;SDS011;10421;49.142;9.232;2023-05-28T02:46:50;8.73;;;5.20;;
20525;SDS011;10421;49.142;9.232;2023-05-28T02:49:17;9.50;;;4.70;;
20525;SDS011;10421;49.142;9.232;2023-05-28T02:51:45;9.83;;;3.80;;
20525;SDS011;10421;49.142;9.232;2023-05-28T02:54:11;8.67;;;3.67;;
20525;SDS011;10421;49.142;9.232;2023-05-28T02:56:38;7.00;;;3.80;;
20525;SDS011;10421;49.142;9.232;2023-05-28T02:59:05;9.93;;;4.37;;
20525;SDS011;10421;49.142;9.232;2023-05-28T03:01:31;10.73;;;4.37;;
20525;SDS011;10421;49.142;9.232;2023-05-28T03:03:58;8.60;;;4.40;;
20525;SDS011;10421;49.142;9.232;2023-05-28T03:06:25;5.90;;;3.80;;
20525;SDS011;10421;49.142;9.232;2023-05-28T03:08:53;8.60;;;4.20;;
20525;SDS011;10421;49.142;9.232;2023-05-28T03:11:19;8.70;;;4.57;;
20525;SDS011;10421;49.142;9.232;2023-05-28T03:13:46;7.13;;;3.93;;
20525;SDS011;10421;49.142;9.232;2023-05-28T03:16:13;6.23;;;3.67;;
20525;SDS011;10421;49.142;9.232;2023-05-28T03:18:39;7.40;;;4.37;;
20525;SDS011;10421;49.142;9.232;2023-05-28T03:21:06;6.93;;;4.43;;
20525;SDS011;10421;49.142;9.232;2023-05-28T03:23:34;10.77;;;5.37;;
20525;SDS011;10421;49.142;9.232;2023-05-28T03:26:02;14.47;;;7.37;;
20525;SDS011;10421;49.142;9.232;2023-05-28T03:28:28;9.10;;;4.50;;
20525;SDS011;10421;49.142;9.232;2023-05-28T03:30:55;6.90;;;3.83;;
20525;SDS011;10421;49.142;9.232;2023-05-28T03:33:23;7.13;;;4.13;;
20525;SDS011;10421;49.142;9.232;2023-05-28T03:35:49;9.13;;;3.80;;
20525;SDS011;10421;49.142;9.232;2023-05-28T03:38:16;8.10;;;4.10;;
20525;SDS011;10421;49.142;9.232;2023-05-28T03:40:43;10.10;;;4.53;;
20525;SDS011;10421;49.142;9.232;2023-05-28T03:43:11;11.00;;;4.20;;
20525;SDS011;10421;49.142;9.232;2023-05-28T03:45:38;7.30;;;4.53;;
20525;SDS011;10421;49.142;9.232;2023-05-28T03:48:05;6.73;;;4.40;;
20525;SDS011;10421;49.142;9.232;2023-05-28T03:50:32;7.30;;;3.80;;
20525;SDS011;10421;49.142;9.232;2023-05-28T03:52:59;7.20;;;4.40;;
20525;SDS011;10421;49.142;9.232;2023-05-28T03:55:25;6.43;;;4.30;;
20525;SDS011;10421;49.142;9.232;2023-05-28T03:57:52;8.87;;;4.53;;
20525;SDS011;10421;49.142;9.232;2023-05-28T04:00:20;10.93;;;4.50;;
20525;SDS011;10421;49.142;9.232;2023-05-28T04:02:47;7.73;;;3.97;;
20525;SDS011;10421;49.142;9.232;2023-05-28T04:05:13;10.93;;;5.00;;
20525;SDS011;10421;49.142;9.232;2023-05-28T04:07:40;8.53;;;4.33;;
20525;SDS011;10421;49.142;9.232;2023-05-28T04:10:08;9.37;;;4.00;;
20525;SDS011;10421;49.142;9.232;2023-05-28T04:12:35;9.10;;;4.57;;
20525;SDS011;10421;49.142;9.232;2023-05-28T04:15:01;6.60;;;3.97;;
20525;SDS011;10421;49.142;9.232;2023-05-28T04:17:30;7.90;;;4.03;;
20525;SDS011;10421;49.142;9.232;2023-05-28T04:19:57;11.77;;;5.20;;
20525;SDS011;10421;49.142;9.232;2023-05-28T04:22:23;7.40;;;4.27;;
20525;SDS011;10421;49.142;9.232;2023-05-28T04:24:51;6.60;;;3.80;;
20525;SDS011;10421;49.142;9.232;2023-05-28T04:27:20;10.57;;;4.40;;
20525;SDS011;10421;49.142;9.232;2023-05-28T04:29:48;7.33;;;3.83;;
20525;SDS011;10421;49.142;9.232;2023-05-28T04:32:17;8.63;;;4.97;;
20525;SDS011;10421;49.142;9.232;2023-05-28T04:34:46;11.40;;;4.67;;
20525;SDS011;10421;49.142;9.232;2023-05-28T04:37:13;9.10;;;4.43;;
20525;SDS011;10421;49.142;9.232;2023-05-28T04:39:40;17.13;;;5.10;;
20525;SDS011;10421;49.142;9.232;2023-05-28T04:42:06;7.70;;;4.20;;
20525;SDS011;10421;49.142;9.232;2023-05-28T04:44:34;7.00;;;4.33;;
20525;SDS011;10421;49.142;9.232;2023-05-28T04:47:01;6.10;;;4.23;;
20525;SDS011;10421;49.142;9.232;2023-05-28T04:49:28;9.43;;;4.13;;
20525;SDS011;10421;49.142;9.232;2023-05-28T04:51:58;9.40;;;5.47;;
20525;SDS011;10421;49.142;9.232;2023-05-28T04:54:24;11.17;;;4.63;;
20525;SDS011;10421;49.142;9.232;2023-05-28T04:56:51;7.20;;;4.50;;
20525;SDS011;10421;49.142;9.232;2023-05-28T04:59:18;7.43;;;4.50;;
20525;SDS011;10421;49.142;9.232;2023-05-28T05:01:45;9.37;;;5.00;;
20525;SDS011;10421;49.142;9.232;2023-05-28T05:04:12;10.63;;;4.63;;
20525;SDS011;10421;49.142;9.232;2023-05-28T05:06:39;9.43;;;4.07;;
20525;SDS011;10421;49.142;9.232;2023-05-28T05:09:07;7.50;;;4.40;;
20525;SDS011;10421;49.142;9.232;2023-05-28T05:11:35;7.57;;;4.60;;
20525;SDS011;10421;49.142;9.232;2023-05-28T05:14:01;8.17;;;5.03;;
20525;SDS011;10421;49.142;9.232;2023-05-28T05:16:28;7.10;;;3.93;;
20525;SDS011;10421;49.142;9.232;2023-05-28T05:18:55;8.07;;;4.73;;
20525;SDS011;10421;49.142;9.232;2023-05-28T05:21:22;9.40;;;4.80;;
20525;SDS011;10421;49.142;9.232;2023-05-28T05:23:48;8.03;;;4.50;;
20525;SDS011;10421;49.142;9.232;2023-05-28T05:26:16;9.50;;;4.20;;
20525;SDS011;10421;49.142;9.232;2023-05-28T05:28:43;13.57;;;5.00;;
20525;SDS011;10421;49.142;9.232;2023-05-28T05:31:10;8.93;;;4.47;;
20525;SDS011;10421;49.142;9.232;2023-05-28T05:33:38;8.53;;;4.70;;
20525;SDS011;10421;49.142;9.232;2023-05-28T05:36:05;6.13;;;3.97;;
20525;SDS011;10421;49.142;9.232;2023-05-28T05:38:33;8.27;;;4.90;;
20525;SDS011;10421;49.142;9.232;2023-05-28T05:41:00;14.50;;;7.80;;
20525;SDS011;10421;49.142;9.232;2023-05-28T05:43:28;15.07;;;8.30;;
20525;SDS011;10421;49.142;9.232;2023-05-28T05:45:54;22.23;;;11.23;;
20525;SDS011;10421;49.142;9.232;2023-05-28T05:48:21;15.43;;;9.17;;
20525;SDS011;10421;49.142;9.232;2023-05-28T05:50:51;9.80;;;4.90;;
20525;SDS011;10421;49.142;9.232;2023-05-28T05:53:20;8.27;;;4.77;;
20525;SDS011;10421;49.142;9.232;2023-05-28T05:55:47;11.83;;;5.83;;
20525;SDS011;10421;49.142;9.232;2023-05-28T05:58:14;23.13;;;11.43;;
20525;SDS011;10421;49.142;9.232;2023-05-28T06:00:42;9.17;;;5.40;;
20525;SDS011;10421;49.142;9.232;2023-05-28T06:03:09;10.83;;;5.30;;
20525;SDS011;10421;49.142;9.232;2023-05-28T06:05:36;9.87;;;5.30;;
20525;SDS011;10421;49.142;9.232;2023-05-28T06:08:03;11.93;;;5.10;;
20525;SDS011;10421;49.142;9.232;2023-05-28T06:10:30;9.63;;;5.13;;
20525;SDS011;10421;49.142;9.232;2023-05-28T06:12:57;8.73;;;5.20;;
20525;SDS011;10421;49.142;9.232;2023-05-28T06:15:26;8.40;;;4.57;;
20525;SDS011;10421;49.142;9.232;2023-05-28T06:17:54;11.13;;;4.80;;
20525;SDS011;10421;49.142;9.232;2023-05-28T06:20:21;10.03;;;4.70;;
20525;SDS011;10421;49.142;9.232;2023-05-28T06:22:47;10.23;;;4.50;;
20525;SDS011;10421;49.142;9.232;2023-05-28T06:25:14;8.57;;;4.40;;
20525;SDS011;10421;49.142;9.232;2023-05-28T06:27:41;8.63;;;4.90;;
20525;SDS011;10421;49.142;9.232;2023-05-28T06:30:08;7.63;;;4.77;;
20525;SDS011;10421;49.142;9.232;2023-05-28T06:32:36;7.43;;;4.43;;
20525;SDS011;10421;49.142;9.232;2023-05-28T06:35:04;11.77;;;5.07;;
20525;SDS011;10421;49.142;9.232;2023-05-28T06:37:31;7.97;;;4.73;;
20525;SDS011;10421;49.142;9.232;2023-05-28T06:39:57;8.97;;;4.80;;
20525;SDS011;10421;49.142;9.232;2023-05-28T06:42:24;13.33;;;5.33;;
20525;SDS011;10421;49.142;9.232;2023-05-28T06:44:51;6.37;;;4.20;;
20525;SDS011;10421;49.142;9.232;2023-05-28T06:47:17;12.27;;;5.20;;
20525;SDS011;10421;49.142;9.232;2023-05-28T06:49:44;9.00;;;5.23;;
20525;SDS011;10421;49.142;9.232;2023-05-28T06:52:12;9.80;;;5.00;;
20525;SDS011;10421;49.142;9.232;2023-05-28T06:54:39;11.40;;;5.83;;
20525;SDS011;10421;49.142;9.232;2023-05-28T06:57:05;11.60;;;5.57;;
20525;SDS011;10421;49.142;9.232;2023-05-28T06:59:32;15.50;;;6.73;;
20525;SDS011;10421;49.142;9.232;2023-05-28T07:01:59;11.53;;;6.70;;
20525;SDS011;10421;49.142;9.232;2023-05-28T07:04:25;7.17;;;4.83;;
20525;SDS011;10421;49.142;9.232;2023-05-28T07:06:52;14.53;;;8.00;;
20525;SDS011;10421;49.142;9.232;2023-05-28T07:09:20;23.93;;;13.27;;
20525;SDS011;10421;49.142;9.232;2023-05-28T07:11:47;20.33;;;12.10;;
20525;SDS011;10421;49.142;9.232;2023-05-28T07:14:14;17.07;;;9.30;;
20525;SDS011;10421;49.142;9.232;2023-05-28T07:16:41;10.47;;;6.20;;
20525;SDS011;10421;49.142;9.232;2023-05-28T07:19:07;8.67;;;4.27;;
20525;SDS011;10421;49.142;9.232;2023-05-28T07:21:34;11.90;;;5.33;;
20525;SDS011;10421;49.142;9.232;2023-05-28T07:24:02;11.53;;;6.10;;
20525;SDS011;10421;49.142;9.232;2023-05-28T07:26:31;13.53;;;6.80;;
20525;SDS011;10421;49.142;9.232;2023-05-28T07:28:58;10.03;;;6.77;;
20525;SDS011;10421;49.142;9.232;2023-05-28T07:31:26;10.40;;;5.60;;
20525;SDS011;10421;49.142;9.232;2023-05-28T07:33:53;7.13;;;4.60;;
20525;SDS011;10421;49.142;9.232;2023-05-28T07:36:21;5.33;;;4.03;;
20525;SDS011;10421;49.142;9.232;2023-05-28T07:38:47;6.37;;;4.20;;
20525;SDS011;10421;49.142;9.232;2023-05-28T07:41:14;8.80;;;6.20;;
20525;SDS011;10421;49.142;9.232;2023-05-28T07:43:42;7.73;;;4.67;;
20525;SDS011;10421;49.142;9.232;2023-05-28T07:46:09;13.10;;;7.03;;
20525;SDS011;10421;49.142;9.232;2023-05-28T07:48:36;14.03;;;7.47;;
20525;SDS011;10421;49.142;9.232;2023-05-28T07:51:03;13.90;;;8.40;;
20525;SDS011;10421;49.142;9.232;2023-05-28T07:53:30;25.83;;;12.30;;
20525;SDS011;10421;49.142;9.232;2023-05-28T07:55:57;13.23;;;7.27;;
20525;SDS011;10421;49.142;9.232;2023-05-28T07:58:25;13.53;;;6.63;;
20525;SDS011;10421;49.142;9.232;2023-05-28T08:00:53;7.43;;;4.30;;
20525;SDS011;10421;49.142;9.232;2023-05-28T08:03:20;9.10;;;4.87;;
20525;SDS011;10421;49.142;9.232;2023-05-28T08:05:48;10.70;;;4.97;;
20525;SDS011;10421;49.142;9.232;2023-05-28T08:08:15;16.00;;;8.10;;
20525;SDS011;10421;49.142;9.232;2023-05-28T08:10:42;10.37;;;6.67;;
20525;SDS011;10421;49.142;9.232;2023-05-28T08:13:09;8.80;;;4.10;;
20525;SDS011;10421;49.142;9.232;2023-05-28T08:15:35;10.67;;;4.80;;
20525;SDS011;10421;49.142;9.232;2023-05-28T08:18:04;7.17;;;4.70;;
20525;SDS011;10421;49.142;9.232;2023-05-28T08:20:31;8.63;;;4.57;;
20525;SDS011;10421;49.142;9.232;2023-05-28T08:22:58;9.20;;;4.90;;
20525;SDS011;10421;49.142;9.232;2023-05-28T08:25:24;7.37;;;4.63;;
20525;SDS011;10421;49.142;9.232;2023-05-28T08:27:51;9.43;;;4.70;;
20525;SDS011;10421;49.142;9.232;2023-05-28T08:30:18;12.77;;;4.60;;
20525;SDS011;10421;49.142;9.232;2023-05-28T08:32:44;7.70;;;4.70;;
20525;SDS011;10421;49.142;9.232;2023-05-28T08:35:12;9.37;;;5.33;;
20525;SDS011;10421;49.142;9.232;2023-05-28T08:37:39;7.40;;;4.63;;
20525;SDS011;10421;49.142;9.232;2023-05-28T08:40:06;23.63;;;13.47;;
20525;SDS011;10421;49.142;9.232;2023-05-28T08:42:35;11.03;;;7.13;;
20525;SDS011;10421;49.142;9.232;2023-05-28T08:45:02;7.10;;;4.33;;
20525;SDS011;10421;49.142;9.232;2023-05-28T08:47:31;8.57;;;4.30;;
20525;SDS011;10421;49.142;9.232;2023-05-28T08:49:59;10.37;;;5.37;;
20525;SDS011;10421;49.142;9.232;2023-05-28T08:52:31;9.60;;;4.60;;
20525;SDS011;10421;49.142;9.232;2023-05-28T08:54:59;9.23;;;4.90;;
20525;SDS011;10421;49.142;9.232;2023-05-28T08:57:27;9.70;;;4.90;;
20525;SDS011;10421;49.142;9.232;2023-05-28T08:59:55;9.17;;;4.63;;
20525;SDS011;10421;49.142;9.232;2023-05-28T09:02:24;8.40;;;4.80;;
20525;SDS011;10421;49.142;9.232;2023-05-28T09:04:51;8.37;;;4.50;;
20525;SDS011;10421;49.142;9.232;2023-05-28T09:07:21;13.43;;;7.47;;
20525;SDS011;10421;49.142;9.232;2023-05-28T09:09:49;9.03;;;5.83;;
20525;SDS011;10421;49.142;9.232;2023-05-28T09:12:19;10.23;;;5.30;;
20525;SDS011;10421;49.142;9.232;2023-05-28T09:14:49;7.30;;;4.67;;
20525;SDS011;10421;49.142;9.232;2023-05-28T09:17:16;7.40;;;4.40;;
20525;SDS011;10421;49.142;9.232;2023-05-28T09:19:49;8.67;;;5.10;;
20525;SDS011;10421;49.142;9.232;2023-05-28T09:22:17;8.40;;;5.17;;
20525;SDS011;10421;49.142;9.232;2023-05-28T09:24:49;20.33;;;10.47;;
20525;SDS011;10421;49.142;9.232;2023-05-28T09:27:17;20.27;;;12.37;;
20525;SDS011;10421;49.142;9.232;2023-05-28T09:29:44;19.30;;;11.47;;
20525;SDS011;10421;49.142;9.232;2023-05-28T09:32:12;12.30;;;7.10;;
20525;SDS011;10421;49.142;9.232;2023-05-28T09:34:43;13.27;;;8.40;;
20525;SDS011;10421;49.142;9.232;2023-05-28T09:37:10;15.13;;;8.83;;
20525;SDS011;10421;49.142;9.232;2023-05-28T09:39:37;16.33;;;9.80;;
20525;SDS011;10421;49.142;9.232;2023-05-28T09:42:06;8.13;;;5.30;;
20525;SDS011;10421;49.142;9.232;2023-05-28T09:44:34;8.07;;;5.67;;
20525;SDS011;10421;49.142;9.232;2023-05-28T09:47:05;9.40;;;5.90;;
20525;SDS011;10421;49.142;9.232;2023-05-28T09:49:39;11.30;;;4.30;;
20525;SDS011;10421;49.142;9.232;2023-05-28T09:52:08;9.67;;;4.40;;
20525;SDS011;10421;49.142;9.232;2023-05-28T09:54:35;7.27;;;4.20;;
20525;SDS011;10421;49.142;9.232;2023-05-28T09:57:04;7.70;;;4.23;;
20525;SDS011;10421;49.142;9.232;2023-05-28T09:59:36;6.20;;;4.07;;
20525;SDS011;10421;49.142;9.232;2023-05-28T10:02:12;6.47;;;4.23;;
20525;SDS011;10421;49.142;9.232;2023-05-28T10:04:48;5.70;;;4.20;;
20525;SDS011;10421;49.142;9.232;2023-05-28T10:07:20;9.40;;;4.83;;
20525;SDS011;10421;49.142;9.232;2023-05-28T10:09:49;7.63;;;4.27;;
20525;SDS011;10421;49.142;9.232;2023-05-28T10:12:19;8.37;;;5.40;;
20525;SDS011;10421;49.142;9.232;2023-05-28T10:14:50;9.80;;;4.30;;
20525;SDS011;10421;49.142;9.232;2023-05-28T10:17:17;8.40;;;5.10;;
20525;SDS011;10421;49.142;9.232;2023-05-28T10:19:44;7.80;;;4.60;;
20525;SDS011;10421;49.142;9.232;2023-05-28T10:22:11;8.30;;;4.80;;
20525;SDS011;10421;49.142;9.232;2023-05-28T10:24:39;9.10;;;4.17;;
20525;SDS011;10421;49.142;9.232;2023-05-28T10:27:06;8.47;;;4.27;;
20525;SDS011;10421;49.142;9.232;2023-05-28T10:29:43;7.83;;;4.33;;
20525;SDS011;10421;49.142;9.232;2023-05-28T10:32:13;9.67;;;3.90;;
20525;SDS011;10421;49.142;9.232;2023-05-28T10:34:40;7.17;;;3.97;;
20525;SDS011;10421;49.142;9.232;2023-05-28T10:37:08;6.60;;;4.23;;
20525;SDS011;10421;49.142;9.232;2023-05-28T10:39:39;7.70;;;4.27;;
20525;SDS011;10421;49.142;9.232;2023-05-28T10:42:07;7.80;;;4.27;;
20525;SDS011;10421;49.142;9.232;2023-05-28T10:44:53;8.10;;;4.23;;
20525;SDS011;10421;49.142;9.232;2023-05-28T10:47:32;5.50;;;3.67;;
20525;SDS011;10421;49.142;9.232;2023-05-28T10:49:59;8.57;;;4.33;;
20525;SDS011;10421;49.142;9.232;2023-05-28T10:52:27;9.50;;;4.63;;
20525;SDS011;10421;49.142;9.232;2023-05-28T10:54:57;9.03;;;5.47;;
20525;SDS011;10421;49.142;9.232;2023-05-28T10:57:27;5.13;;;3.73;;
20525;SDS011;10421;49.142;9.232;2023-05-28T11:00:07;6.47;;;4.50;;
20525;SDS011;10421;49.142;9.232;2023-05-28T11:02:38;10.03;;;4.53;;
20525;SDS011;10421;49.142;9.232;2023-05-28T11:05:05;6.20;;;3.93;;
20525;SDS011;10421;49.142;9.232;2023-05-28T11:07:35;6.63;;;4.43;;
20525;SDS011;10421;49.142;9.232;2023-05-28T11:10:03;7.83;;;4.40;;
20525;SDS011;10421;49.142;9.232;2023-05-28T11:12:32;8.77;;;4.30;;
20525;SDS011;10421;49.142;9.232;2023-05-28T11:15:00;11.07;;;4.30;;
20525;SDS011;10421;49.142;9.232;2023-05-28T11:17:28;6.27;;;4.13;;
20525;SDS011;10421;49.142;9.232;2023-05-28T11:19:55;7.67;;;3.83;;
20525;SDS011;10421;49.142;9.232;2023-05-28T11:22:22;8.20;;;4.30;;
20525;SDS011;10421;49.142;9.232;2023-05-28T11:24:58;11.60;;;5.00;;
20525;SDS011;10421;49.142;9.232;2023-05-28T11:27:30;7.20;;;4.50;;
20525;SDS011;10421;49.142;9.232;2023-05-28T11:29:59;8.23;;;4.20;;
20525;SDS011;10421;49.142;9.232;2023-05-28T11:32:27;6.90;;;3.97;;
20525;SDS011;10421;49.142;9.232;2023-05-28T11:34:58;7.50;;;4.50;;
20525;SDS011;10421;49.142;9.232;2023-05-28T11:37:25;9.00;;;5.30;;
20525;SDS011;10421;49.142;9.232;2023-05-28T11:39:53;6.27;;;3.90;;
20525;SDS011;10421;49.142;9.232;2023-05-28T11:42:21;9.17;;;4.90;;
20525;SDS011;10421;49.142;9.232;2023-05-28T11:44:49;7.90;;;4.90;;
20525;SDS011;10421;49.142;9.232;2023-05-28T11:47:17;7.73;;;5.13;;
20525;SDS011;10421;49.142;9.232;2023-05-28T11:49:45;6.17;;;3.90;;
20525;SDS011;10421;49.142;9.232;2023-05-28T11:52:13;5.90;;;3.90;;
20525;SDS011;10421;49.142;9.232;2023-05-28T11:54:41;7.30;;;4.20;;
20525;SDS011;10421;49.142;9.232;2023-05-28T11:57:10;8.30;;;4.80;;
20525;SDS011;10421;49.142;9.232;2023-05-28T11:59:37;7.83;;;5.10;;
20525;SDS011;10421;49.142;9.232;2023-05-28T12:02:10;7.70;;;4.80;;
20525;SDS011;10421;49.142;9.232;2023-05-28T12:04:37;6.37;;;4.27;;
20525;SDS011;10421;49.142;9.232;2023-05-28T12:07:05;7.13;;;4.50;;
20525;SDS011;10421;49.142;9.232;2023-05-28T12:09:32;5.13;;;3.97;;
20525;SDS011;10421;49.142;9.232;2023-05-28T12:12:09;8.20;;;4.63;;
20525;SDS011;10421;49.142;9.232;2023-05-28T12:14:37;7.13;;;5.00;;
20525;SDS011;10421;49.142;9.232;2023-05-28T12:17:04;6.77;;;4.40;;
20525;SDS011;10421;49.142;9.232;2023-05-28T12:19:33;5.93;;;3.80;;
20525;SDS011;10421;49.142;9.232;2023-05-28T12:22:01;8.20;;;4.40;;
20525;SDS011;10421;49.142;9.232;2023-05-28T12:24:29;6.50;;;4.10;;
20525;SDS011;10421;49.142;9.232;2023-05-28T12:26:56;7.83;;;5.00;;
20525;SDS011;10421;49.142;9.232;2023-05-28T12:29:23;10.10;;;5.17;;
20525;SDS011;10421;49.142;9.232;2023-05-28T12:31:57;8.30;;;4.20;;
20525;SDS011;10421;49.142;9.232;2023-05-28T12:34:24;7.37;;;4.93;;
20525;SDS011;10421;49.142;9.232;2023-05-28T12:36:51;7.03;;;4.20;;
20525;SDS011;10421;49.142;9.232;2023-05-28T12:39:18;7.20;;;4.43;;
20525;SDS011;10421;49.142;9.232;2023-05-28T12:41:46;7.80;;;5.20;;
20525;SDS011;10421;49.142;9.232;2023-05-28T12:44:13;7.87;;;4.50;;
20525;SDS011;10421;49.142;9.232;2023-05-28T12:46:40;8.27;;;4.80;;
20525;SDS011;10421;49.142;9.232;2023-05-28T12:49:07;8.60;;;5.30;;
20525;SDS011;10421;49.142;9.232;2023-05-28T12:51:34;9.83;;;4.83;;
20525;SDS011;10421;49.142;9.232;2023-05-28T12:54:01;6.90;;;4.33;;
20525;SDS011;10421;49.142;9.232;2023-05-28T12:56:28;7.50;;;3.90;;
20525;SDS011;10421;49.142;9.232;2023-05-28T12:58:57;5.63;;;4.03;;
20525;SDS011;10421;49.142;9.232;2023-05-28T13:01:24;7.23;;;4.47;;
20525;SDS011;10421;49.142;9.232;2023-05-28T13:03:51;9.23;;;5.17;;
20525;SDS011;10421;49.142;9.232;2023-05-28T13:06:18;7.80;;;4.83;;
20525;SDS011;10421;49.142;9.232;2023-05-28T13:08:44;6.83;;;4.80;;
20525;SDS011;10421;49.142;9.232;2023-05-28T13:11:11;10.27;;;5.63;;
20525;SDS011;10421;49.142;9.232;2023-05-28T13:13:38;8.73;;;4.90;;
20525;SDS011;10421;49.142;9.232;2023-05-28T13:16:06;9.37;;;5.20;;
20525;SDS011;10421;49.142;9.232;2023-05-28T13:18:33;7.77;;;4.20;;
20525;SDS011;10421;49.142;9.232;2023-05-28T13:21:00;6.57;;;4.43;;
20525;SDS011;10421;49.142;9.232;2023-05-28T13:23:27;6.47;;;4.30;;
20525;SDS011;10421;49.142;9.232;2023-05-28T13:25:54;8.80;;;5.70;;
20525;SDS011;10421;49.142;9.232;2023-05-28T13:28:20;9.23;;;4.93;;
20525;SDS011;10421;49.142;9.232;2023-05-28T13:30:47;7.20;;;4.80;;
20525;SDS011;10421;49.142;9.232;2023-05-28T13:33:16;6.90;;;4.90;;
20525;SDS011;10421;49.142;9.232;2023-05-28T13:35:43;6.63;;;4.57;;
20525;SDS011;10421;49.142;9.232;2023-05-28T13:38:10;7.87;;;5.00;;
20525;SDS011;10421;49.142;9.232;2023-05-28T13:40:37;9.37;;;5.50;;
20525;SDS011;10421;49.142;9.232;2023-05-28T13:43:04;5.93;;;4.40;;
20525;SDS011;10421;49.142;9.232;2023-05-28T13:45:31;7.30;;;4.90;;
20525;SDS011;10421;49.142;9.232;2023-05-28T13:47:58;11.10;;;5.40;;
20525;SDS011;10421;49.142;9.232;2023-05-28T13:50:28;7.27;;;5.07;;
20525;SDS011;10421;49.142;9.232;2023-05-28T13:52:55;6.30;;;4.60;;
20525;SDS011;10421;49.142;9.232;2023-05-28T13:55:23;8.63;;;5.00;;
20525;SDS011;10421;49.142;9.232;2023-05-28T13:57:50;7.80;;;4.47;;
20525;SDS011;10421;49.142;9.232;2023-05-28T14:00:16;8.17;;;5.00;;
20525;SDS011;10421;49.142;9.232;2023-05-28T14:02:45;8.50;;;5.33;;
20525;SDS011;10421;49.142;9.232;2023-05-28T14:05:13;8.37;;;5.40;;
20525;SDS011;10421;49.142;9.232;2023-05-28T14:07:41;10.60;;;6.17;;
20525;SDS011;10421;49.142;9.232;2023-05-28T14:10:08;7.50;;;5.33;;
20525;SDS011;10421;49.142;9.232;2023-05-28T14:12:36;6.93;;;4.93;;
20525;SDS011;10421;49.142;9.232;2023-05-28T14:15:03;9.37;;;5.37;;
20525;SDS011;10421;49.142;9.232;2023-05-28T14:17:30;11.70;;;5.37;;
20525;SDS011;10421;49.142;9.232;2023-05-28T14:19:57;8.97;;;5.77;;
20525;SDS011;10421;49.142;9.232;2023-05-28T14:22:23;8.00;;;5.10;;
20525;SDS011;10421;49.142;9.232;2023-05-28T14:24:52;7.10;;;4.80;;
20525;SDS011;10421;49.142;9.232;2023-05-28T14:27:19;7.80;;;5.03;;
20525;SDS011;10421;49.142;9.232;2023-05-28T14:29:45;11.37;;;5.67;;
20525;SDS011;10421;49.142;9.232;2023-05-28T14:32:12;7.57;;;4.70;;
20525;SDS011;10421;49.142;9.232;2023-05-28T14:34:39;8.87;;;5.30;;
20525;SDS011;10421;49.142;9.232;2023-05-28T14:37:06;9.50;;;5.20;;
20525;SDS011;10421;49.142;9.232;2023-05-28T14:39:33;11.80;;;6.20;;
20525;SDS011;10421;49.142;9.232;2023-05-28T14:42:01;8.67;;;5.50;;
20525;SDS011;10421;49.142;9.232;2023-05-28T14:44:28;6.47;;;5.07;;
20525;SDS011;10421;49.142;9.232;2023-05-28T14:46:55;9.83;;;4.80;;